Time;durP1;ratioP1;P1;durP2;ratioP2;P2;SDS_P1;SDS_P2;PMS_P1;PMS_P2;Temp;Humidity;BMP_temperature;BMP_pressure;BME280_temperature;BME280_humidity;BME280_pressure;Samples;Min_cycle;Max_cycle;Signal;HPM_P1;HPM_P2
2023/04/01 00:00:18;;;;;;;23.50;15.60;;;2.40;99.90;;;;;;5014712;28;20014;-81
2023/04/01 00:02:46;;;;;;;24.23;16.07;;;2.40;99.90;;;;;;5009884;28;20566;-82
2023/04/01 00:05:12;;;;;;;23.20;15.18;;;2.40;99.90;;;;;;4987374;28;20019;-81
2023/04/01 00:07:39;;;;;;;24.55;16.35;;;2.40;99.90;;;;;;4995838;28;20037;-81
2023/04/01 00:10:07;;;;;;;22.80;15.77;;;2.50;99.90;;;;;;4999123;28;20499;-82
2023/04/01 00:12:34;;;;;;;22.73;15.23;;;2.40;99.90;;;;;;4997482;28;20116;-82
2023/04/01 00:15:00;;;;;;;20.30;16.05;;;2.50;99.90;;;;;;4995851;28;20019;-82
2023/04/01 00:17:26;;;;;;;25.23;16.38;;;2.50;99.90;;;;;;4999709;28;20054;-81
2023/04/01 00:19:55;;;;;;;27.92;17.02;;;2.50;99.90;;;;;;4994573;28;20109;-83
2023/04/01 00:22:21;;;;;;;25.40;16.98;;;2.50;99.90;;;;;;4994522;28;20018;-82
2023/04/01 00:24:47;;;;;;;30.50;17.08;;;2.50;99.90;;;;;;4996177;28;20100;-82
2023/04/01 00:27:14;;;;;;;22.27;16.13;;;2.50;99.90;;;;;;5001845;28;20555;-82
2023/04/01 00:29:44;;;;;;;22.70;16.45;;;2.50;99.90;;;;;;5009983;28;20050;-82
2023/04/01 00:32:12;;;;;;;25.10;15.77;;;2.50;99.90;;;;;;4996228;28;20026;-81
2023/04/01 00:34:39;;;;;;;;;;;2.50;99.90;;;;;;4999026;28;20415;-82
2023/04/01 00:37:06;;;;;;;21.27;14.43;;;2.50;99.90;;;;;;4996749;28;19932;-82
2023/04/01 00:39:32;;;;;;;21.57;14.83;;;2.50;99.90;;;;;;4994056;28;20515;-82
2023/04/01 00:41:59;;;;;;;22.67;15.07;;;2.40;99.90;;;;;;5006652;28;20272;-83
2023/04/01 00:44:34;;;;;;;24.10;14.80;;;2.50;99.90;;;;;;4997246;28;20038;-83
2023/04/01 00:47:00;;;;;;;19.42;12.65;;;2.50;99.90;;;;;;4996233;28;20092;-83
2023/04/01 00:49:56;;;;;;;21.00;14.18;;;2.50;99.90;;;;;;4996536;28;20459;-82
2023/04/01 00:52:25;;;;;;;22.95;14.60;;;2.50;99.90;;;;;;4981722;28;20399;-81
2023/04/01 00:54:57;;;;;;;25.20;14.25;;;2.50;99.90;;;;;;4994606;28;20499;-81
2023/04/01 00:57:31;;;;;;;23.27;14.30;;;2.50;99.90;;;;;;5000257;28;20014;-80
2023/04/01 00:59:57;;;;;;;27.83;15.27;;;2.40;99.90;;;;;;4993112;28;20022;-81
2023/04/01 01:02:23;;;;;;;22.37;14.27;;;2.40;99.90;;;;;;5008564;28;20014;-82
2023/04/01 01:04:49;;;;;;;20.15;14.70;;;2.40;99.90;;;;;;5001298;28;20350;-82
2023/04/01 01:07:48;;;;;;;23.75;15.02;;;2.40;99.90;;;;;;5002651;28;20050;-81
2023/04/01 01:10:37;;;;;;;21.55;12.77;;;2.40;99.90;;;;;;4997940;28;20026;-81
2023/04/01 01:13:09;;;;;;;19.98;13.25;;;2.30;99.90;;;;;;4995163;28;20015;-81
2023/04/01 01:15:57;;;;;;;21.30;13.18;;;2.30;99.90;;;;;;4999617;28;20105;-82
2023/04/01 01:18:47;;;;;;;18.08;12.63;;;2.20;99.90;;;;;;4993651;28;20038;-81
2023/04/01 01:21:36;;;;;;;17.55;12.13;;;2.30;99.90;;;;;;4988837;28;20025;-80
2023/04/01 01:24:13;;;;;;;19.67;12.75;;;2.20;99.90;;;;;;4987964;28;20046;-82
2023/04/01 01:26:44;;;;;;;17.50;12.25;;;2.20;99.90;;;;;;4993506;28;20412;-81
2023/04/01 01:29:44;;;;;;;18.83;12.23;;;2.30;99.90;;;;;;4991586;28;20030;-81
2023/04/01 01:33:07;;;;;;;22.65;13.30;;;2.30;99.90;;;;;;4998772;28;20027;-82
2023/04/01 01:35:40;;;;;;;26.00;12.77;;;2.30;99.90;;;;;;4929352;29;20123;-82
2023/04/01 01:38:15;;;;;;;18.02;12.77;;;2.30;99.90;;;;;;4934671;29;20059;-81
2023/04/01 01:40:44;;;;;;;21.27;13.70;;;2.40;99.90;;;;;;4934614;29;20039;-81
2023/04/01 01:43:15;;;;;;;20.40;13.38;;;2.40;99.90;;;;;;4937056;29;20079;-80
2023/04/01 01:45:47;;;;;;;21.10;12.38;;;2.50;99.90;;;;;;4935991;29;20034;-81
2023/04/01 01:48:15;;;;;;;22.05;14.35;;;2.60;99.90;;;;;;4917670;29;20043;-81
2023/04/01 01:50:41;;;;;;;;;;;2.60;99.90;;;;;;4935864;29;20020;-81
2023/04/01 01:53:10;;;;;;;19.65;13.18;;;2.50;99.90;;;;;;4926719;29;19907;-81
2023/04/01 01:55:38;;;;;;;19.75;13.70;;;2.40;99.90;;;;;;4926496;29;20095;-80
2023/04/01 01:58:34;;;;;;;21.20;15.10;;;2.30;99.90;;;;;;4933471;29;20034;-80
2023/04/01 02:01:05;;;;;;;21.17;14.40;;;2.30;99.90;;;;;;4933950;29;20067;-82
2023/04/01 02:03:36;;;;;;;25.63;16.30;;;2.30;99.90;;;;;;4933264;29;20023;-81
2023/04/01 02:06:05;;;;;;;22.67;16.05;;;2.20;99.90;;;;;;4945243;28;20103;-81
2023/04/01 02:08:38;;;;;;;25.35;15.30;;;2.30;99.90;;;;;;4993954;28;20108;-80
2023/04/01 02:11:10;;;;;;;25.30;15.05;;;2.30;99.90;;;;;;5002792;28;20022;-80
2023/04/01 02:13:44;;;;;;;25.27;14.70;;;2.30;99.90;;;;;;4991022;28;20029;-81
2023/04/01 02:16:25;;;;;;;21.80;15.68;;;2.20;99.90;;;;;;4996216;28;20030;-79
2023/04/01 02:18:55;;;;;;;25.67;14.60;;;2.20;99.90;;;;;;4996818;28;20042;-80
2023/04/01 02:21:24;;;;;;;20.20;12.48;;;2.20;99.90;;;;;;4995254;28;20080;-84
2023/04/01 02:23:52;;;;;;;23.90;14.32;;;2.20;99.90;;;;;;5009153;28;20054;-80
2023/04/01 02:26:18;;;;;;;20.20;15.02;;;2.30;99.90;;;;;;5001348;28;20379;-81
2023/04/01 02:28:46;;;;;;;20.88;13.73;;;2.30;99.90;;;;;;4993181;28;20034;-82
2023/04/01 02:31:14;;;;;;;18.75;14.18;;;2.40;99.90;;;;;;4997391;28;20468;-82
2023/04/01 02:33:41;;;;;;;22.33;13.75;;;2.40;99.90;;;;;;4994596;28;20069;-82
2023/04/01 02:36:13;;;;;;;18.98;14.45;;;2.40;99.90;;;;;;4998482;28;20026;-80
2023/04/01 02:38:39;;;;;;;19.88;13.80;;;2.50;99.90;;;;;;4996238;28;20038;-81
2023/04/01 02:41:06;;;;;;;20.88;13.57;;;2.50;99.90;;;;;;4998770;28;20018;-83
2023/04/01 02:43:32;;;;;;;22.02;13.73;;;2.50;99.90;;;;;;4995699;28;20030;-83
2023/04/01 02:45:58;;;;;;;16.83;13.07;;;2.50;99.90;;;;;;4995666;28;20101;-82
2023/04/01 02:48:24;;;;;;;19.27;13.52;;;2.50;99.90;;;;;;4996122;28;20034;-82
2023/04/01 02:50:49;;;;;;;22.05;14.82;;;2.50;99.90;;;;;;4998217;28;20033;-82
2023/04/01 02:53:16;;;;;;;26.52;15.57;;;2.60;99.90;;;;;;4999647;28;20022;-80
2023/04/01 02:55:42;;;;;;;20.33;13.10;;;2.70;99.90;;;;;;4998534;28;20026;-81
2023/04/01 02:58:08;;;;;;;25.00;14.35;;;2.80;99.90;;;;;;4997256;28;20022;-81
2023/04/01 03:00:34;;;;;;;18.30;13.07;;;2.70;99.90;;;;;;4996096;28;20377;-79
2023/04/01 03:03:00;;;;;;;22.55;12.98;;;2.60;99.90;;;;;;4996607;28;20030;-80
2023/04/01 03:05:26;;;;;;;20.55;13.43;;;2.60;99.90;;;;;;5001228;28;20025;-81
2023/04/01 03:07:52;;;;;;;19.08;13.05;;;2.40;99.90;;;;;;5004075;28;20030;-81
2023/04/01 03:10:18;;;;;;;21.38;13.52;;;2.30;99.90;;;;;;5011683;28;20384;-80
2023/04/01 03:12:44;;;;;;;24.67;13.93;;;2.30;99.90;;;;;;5003397;28;20019;-82
2023/04/01 03:15:12;;;;;;;19.83;15.02;;;2.40;99.90;;;;;;4997280;28;20034;-83
2023/04/01 03:17:39;;;;;;;23.92;15.90;;;2.40;99.90;;;;;;4996255;28;20044;-84
2023/04/01 03:20:06;;;;;;;22.77;13.70;;;2.50;99.90;;;;;;4994929;28;20054;-82
2023/04/01 03:22:32;;;;;;;21.15;13.70;;;2.50;99.90;;;;;;5001443;28;20029;-83
2023/04/01 03:24:57;;;;;;;22.27;15.60;;;2.60;99.90;;;;;;4995490;28;20388;-82
2023/04/01 03:27:23;;;;;;;26.70;15.93;;;2.50;99.90;;;;;;4998110;28;20117;-79
2023/04/01 03:29:49;;;;;;;22.48;15.00;;;2.50;99.90;;;;;;4997325;28;20519;-82
2023/04/01 03:32:15;;;;;;;23.98;15.30;;;2.50;99.90;;;;;;4998440;28;20027;-82
2023/04/01 03:34:41;;;;;;;24.13;14.50;;;2.60;99.90;;;;;;4996095;28;20029;-82
2023/04/01 03:37:07;;;;;;;19.98;13.45;;;2.60;99.90;;;;;;5019968;28;20119;-83
2023/04/01 03:39:33;;;;;;;22.70;14.95;;;2.60;99.90;;;;;;5003849;28;20018;-84
2023/04/01 03:41:59;;;;;;;20.10;14.15;;;2.60;99.90;;;;;;5003854;28;20025;-82
2023/04/01 03:44:25;;;;;;;20.00;13.82;;;2.60;99.90;;;;;;5005384;28;20108;-80
2023/04/01 03:46:51;;;;;;;20.75;13.98;;;2.60;99.90;;;;;;5010368;28;20042;-82
2023/04/01 03:49:17;;;;;;;23.80;16.50;;;2.60;99.90;;;;;;5006097;28;20096;-81
2023/04/01 03:51:44;;;;;;;23.73;15.65;;;2.60;99.90;;;;;;5005777;28;20022;-82
2023/04/01 03:54:10;;;;;;;25.52;15.77;;;2.60;99.90;;;;;;5011482;28;20094;-82
2023/04/01 03:56:37;;;;;;;22.57;15.17;;;2.60;99.90;;;;;;5010904;28;20030;-82
2023/04/01 03:59:05;;;;;;;23.40;16.27;;;2.70;99.90;;;;;;5006963;28;20260;-83
2023/04/01 04:01:31;;;;;;;22.27;15.70;;;2.70;99.90;;;;;;4988688;28;20139;-81
2023/04/01 04:03:58;;;;;;;19.40;14.88;;;2.70;99.90;;;;;;4997174;28;20027;-81
2023/04/01 04:06:24;;;;;;;25.33;15.55;;;2.70;99.90;;;;;;4997486;28;20037;-81
2023/04/01 04:08:50;;;;;;;22.05;14.90;;;2.70;99.90;;;;;;4996468;28;20034;-82
2023/04/01 04:11:16;;;;;;;22.88;13.80;;;2.80;99.90;;;;;;4995929;28;20173;-80
2023/04/01 04:13:43;;;;;;;25.20;15.63;;;2.70;99.90;;;;;;4994599;28;20065;-81
2023/04/01 04:16:11;;;;;;;20.93;14.63;;;2.80;99.90;;;;;;4995563;28;20040;-82
2023/04/01 04:18:37;;;;;;;19.73;14.65;;;2.80;99.90;;;;;;4997896;28;20116;-82
2023/04/01 04:21:04;;;;;;;18.85;14.18;;;2.80;99.90;;;;;;4997010;28;20023;-82
2023/04/01 04:23:31;;;;;;;22.07;14.77;;;2.80;99.90;;;;;;4995718;28;20101;-82
2023/04/01 04:26:03;;;;;;;20.58;14.35;;;2.80;99.90;;;;;;4993908;28;20208;-82
2023/04/01 04:28:29;;;;;;;19.27;13.68;;;2.80;99.90;;;;;;4995745;28;20046;-83
2023/04/01 04:30:56;;;;;;;18.70;13.27;;;2.80;99.90;;;;;;4995068;28;20018;-82
2023/04/01 04:33:22;;;;;;;22.63;14.50;;;2.90;99.90;;;;;;4996087;28;20550;-82
2023/04/01 04:35:49;;;;;;;21.03;14.27;;;2.90;99.90;;;;;;4996273;28;20022;-81
2023/04/01 04:38:15;;;;;;;22.77;14.23;;;3.00;99.90;;;;;;4992708;28;20030;-80
2023/04/01 04:40:42;;;;;;;17.65;12.07;;;3.00;99.90;;;;;;4994946;28;20026;-81
2023/04/01 04:43:11;;;;;;;20.40;12.95;;;3.00;99.90;;;;;;4995620;28;20049;-82
2023/04/01 04:45:37;;;;;;;19.23;13.52;;;3.00;99.90;;;;;;4994712;28;20030;-82
2023/04/01 04:48:03;;;;;;;18.63;12.90;;;3.00;99.90;;;;;;4994532;28;20034;-83
2023/04/01 04:50:29;;;;;;;17.67;12.80;;;3.00;99.90;;;;;;5008711;28;20019;-81
2023/04/01 04:52:55;;;;;;;18.55;12.70;;;3.00;99.90;;;;;;5001979;28;20061;-79
2023/04/01 04:55:21;;;;;;;18.30;12.00;;;3.10;99.90;;;;;;5008629;28;20030;-80
2023/04/01 04:57:47;;;;;;;18.10;12.60;;;3.10;99.90;;;;;;5002354;28;20085;-81
2023/04/01 05:00:14;;;;;;;16.52;12.40;;;3.10;99.90;;;;;;5034683;28;20018;-81
2023/04/01 05:02:40;;;;;;;18.40;12.73;;;3.10;99.90;;;;;;5001293;28;20034;-81
2023/04/01 05:05:06;;;;;;;14.95;11.95;;;3.10;99.90;;;;;;4993852;28;20310;-81
2023/04/01 05:07:33;;;;;;;15.90;11.50;;;3.20;99.90;;;;;;4989508;28;20039;-80
2023/04/01 05:09:59;;;;;;;18.20;12.73;;;3.20;99.90;;;;;;4998047;28;20022;-82
2023/04/01 05:12:25;;;;;;;16.55;11.15;;;3.30;99.90;;;;;;5003506;28;20030;-82
2023/04/01 05:14:51;;;;;;;16.33;12.68;;;3.40;99.90;;;;;;5006643;28;20049;-82
2023/04/01 05:17:17;;;;;;;18.33;12.10;;;3.40;99.90;;;;;;5009550;28;20113;-81
2023/04/01 05:19:43;;;;;;;13.70;11.07;;;3.50;99.90;;;;;;4983977;28;20022;-83
2023/04/01 05:22:09;;;;;;;14.38;11.13;;;3.60;99.90;;;;;;4995443;28;20026;-81
2023/04/01 05:24:35;;;;;;;14.82;11.50;;;3.60;99.90;;;;;;4996072;28;20026;-82
2023/04/01 05:27:01;;;;;;;16.23;12.23;;;3.60;99.90;;;;;;4993593;28;20034;-83
2023/04/01 05:29:27;;;;;;;16.45;11.07;;;3.50;99.90;;;;;;4995023;28;20084;-83
2023/04/01 05:31:52;;;;;;;17.90;11.68;;;3.50;99.90;;;;;;4994562;28;20420;-81
2023/04/01 05:34:18;;;;;;;16.75;11.82;;;3.60;99.90;;;;;;4995729;28;20488;-82
2023/04/01 05:36:45;;;;;;;18.65;11.52;;;3.70;99.90;;;;;;5007099;28;20050;-84
2023/04/01 05:39:11;;;;;;;17.98;12.60;;;3.70;99.90;;;;;;5002378;28;20029;-83
2023/04/01 05:41:38;;;;;;;17.42;12.63;;;3.70;99.90;;;;;;4995422;28;20033;-85
2023/04/01 05:44:04;;;;;;;14.57;11.30;;;3.80;99.90;;;;;;4995092;28;20054;-79
2023/04/01 05:46:31;;;;;;;14.90;11.23;;;3.80;99.90;;;;;;4994726;28;20030;-80
2023/04/01 05:48:57;;;;;;;17.35;11.77;;;3.80;99.90;;;;;;4993739;28;20057;-81
2023/04/01 05:51:23;;;;;;;19.20;10.80;;;3.80;99.90;;;;;;4992888;28;20039;-80
2023/04/01 05:53:49;;;;;;;18.25;11.95;;;3.80;99.90;;;;;;5003601;28;20076;-79
2023/04/01 05:56:15;;;;;;;18.13;13.05;;;3.80;99.90;;;;;;4997752;28;20033;-78
2023/04/01 05:58:41;;;;;;;15.75;12.65;;;3.80;99.90;;;;;;5002809;28;20033;-80
2023/04/01 06:01:10;;;;;;;18.05;12.82;;;3.90;99.90;;;;;;4987088;28;20102;-80
2023/04/01 06:03:43;;;;;;;19.80;13.20;;;4.10;99.90;;;;;;5002259;28;20026;-82
2023/04/01 06:06:25;;;;;;;17.80;13.38;;;4.20;99.90;;;;;;4998732;28;20476;-81
2023/04/01 06:08:53;;;;;;;18.50;13.18;;;4.30;99.90;;;;;;4990737;28;20090;-83
2023/04/01 06:11:30;;;;;;;21.92;15.23;;;4.40;99.90;;;;;;5014442;28;20041;-83
2023/04/01 06:14:17;;;;;;;22.58;14.55;;;4.50;99.90;;;;;;4997512;28;20034;-83
2023/04/01 06:17:08;;;;;;;21.50;13.82;;;4.60;99.90;;;;;;5002199;28;20046;-81
2023/04/01 06:19:59;;;;;;;16.42;13.10;;;4.80;99.90;;;;;;4996571;28;20018;-79
2023/04/01 06:22:37;;;;;;;19.52;15.23;;;4.90;99.90;;;;;;4995708;28;20045;-81
2023/04/01 06:25:45;;;;;;;22.17;15.90;;;5.10;99.90;;;;;;4995362;28;20025;-80
2023/04/01 06:28:38;;;;;;;19.08;12.65;;;5.30;99.90;;;;;;4944577;29;20159;-80
2023/04/01 06:31:20;;;;;;;19.98;13.27;;;5.30;99.90;;;;;;4948724;29;20036;-81
2023/04/01 06:34:01;;;;;;;21.27;13.93;;;5.20;99.90;;;;;;4948671;29;20378;-79
2023/04/01 06:36:43;;;;;;;22.27;16.25;;;5.20;99.90;;;;;;4945014;29;20032;-81
2023/04/01 06:39:54;;;;;;;20.77;13.57;;;5.30;99.90;;;;;;4937961;29;20031;-82
2023/04/01 06:42:47;;;;;;;22.60;14.27;;;5.30;99.90;;;;;;4920268;29;20032;-84
2023/04/01 06:45:36;;;;;;;22.63;14.52;;;5.40;99.90;;;;;;4953441;29;20126;-82
2023/04/01 06:48:39;;;;;;;25.35;17.90;;;5.30;99.90;;;;;;4945572;29;20231;-82
2023/04/01 06:51:34;;;;;;;22.65;14.77;;;5.20;99.90;;;;;;4936995;29;20505;-81
2023/04/01 06:54:10;;;;;;;23.13;16.40;;;5.20;99.90;;;;;;4937659;29;20040;-81
2023/04/01 06:56:42;;;;;;;25.88;17.17;;;5.30;99.90;;;;;;4922299;29;20038;-81
2023/04/01 06:59:22;;;;;;;23.00;15.55;;;5.30;99.90;;;;;;4975205;28;20038;-82
2023/04/01 07:02:09;;;;;;;22.85;15.85;;;5.20;99.90;;;;;;4994499;28;20045;-82
2023/04/01 07:04:46;;;;;;;21.00;13.75;;;5.20;99.90;;;;;;4995481;28;20054;-81
2023/04/01 07:07:37;;;;;;;19.23;12.93;;;5.40;99.90;;;;;;4993625;28;20034;-82
2023/04/01 07:10:11;;;;;;;21.27;14.38;;;5.60;99.90;;;;;;4989778;28;20077;-83
2023/04/01 07:12:49;;;;;;;17.83;12.85;;;5.80;99.90;;;;;;5000743;28;20023;-82
2023/04/01 07:15:22;;;;;;;18.92;13.80;;;6.00;99.90;;;;;;4989789;28;20050;-84
2023/04/01 07:17:55;;;;;;;24.83;14.50;;;6.10;99.90;;;;;;5008088;28;20050;-81
2023/04/01 07:20:32;;;;;;;21.58;14.70;;;6.20;99.90;;;;;;4997058;28;20455;-80
2023/04/01 07:23:05;;;;;;;21.42;16.13;;;6.20;99.90;;;;;;5003401;28;20046;-81
2023/04/01 07:25:45;;;;;;;23.60;15.90;;;6.40;99.90;;;;;;5008665;28;20037;-81
2023/04/01 07:28:15;;;;;;;25.30;18.02;;;6.50;99.90;;;;;;5004099;28;20436;-82
2023/04/01 07:31:16;;;;;;;22.40;18.23;;;6.70;99.90;;;;;;5002695;28;20058;-79
2023/04/01 07:34:01;;;;;;;27.35;16.27;;;7.00;99.90;;;;;;4970413;28;20056;-83
2023/04/01 07:36:38;;;;;;;23.52;15.70;;;7.40;99.50;;;;;;4999829;28;20099;-81
2023/04/01 07:39:03;;;;;;;27.50;18.70;;;7.60;98.80;;;;;;4989997;28;20029;-82
2023/04/01 07:41:55;;;;;;;21.55;16.73;;;7.70;98.20;;;;;;5014414;28;20034;-82
2023/04/01 07:44:47;;;;;;;22.63;17.27;;;7.90;97.50;;;;;;4999321;28;20057;-81
2023/04/01 07:47:28;;;;;;;21.63;15.85;;;8.50;97.00;;;;;;4998224;28;20097;-82
2023/04/01 07:50:10;;;;;;;23.40;17.83;;;9.00;96.00;;;;;;4996500;28;20514;-82
2023/04/01 07:53:14;;;;;;;21.42;14.93;;;9.20;95.20;;;;;;4994118;28;20038;-83
2023/04/01 07:55:44;;;;;;;22.38;13.63;;;9.50;94.20;;;;;;5000448;28;20027;-83
2023/04/01 07:58:44;;;;;;;23.13;15.20;;;9.50;93.60;;;;;;4997774;28;20037;-82
2023/04/01 08:01:19;;;;;;;18.83;14.18;;;9.60;92.90;;;;;;4992444;28;20618;-81
2023/04/01 08:04:03;;;;;;;19.60;14.45;;;9.40;92.30;;;;;;4998975;28;20019;-82
2023/04/01 08:06:56;;;;;;;21.50;14.70;;;9.60;92.10;;;;;;4996317;28;20026;-82
2023/04/01 08:09:44;;;;;;;21.13;14.95;;;9.80;91.60;;;;;;4997225;28;20026;-80
2023/04/01 08:12:09;;;;;;;;;;;10.10;91.10;;;;;;4998725;28;20034;-84
2023/04/01 08:14:53;;;;;;;25.02;15.80;;;10.20;91.50;;;;;;5013675;28;19914;-87
2023/04/01 08:21:00;;;;;;;18.13;14.07;;;10.50;90.20;;;;;;4993971;28;20054;-84
2023/04/01 08:23:31;;;;;;;18.23;14.07;;;10.70;88.90;;;;;;5014531;28;20041;-85
2023/04/01 08:26:00;;;;;;;19.38;13.13;;;11.00;87.40;;;;;;4998398;28;20153;-84
2023/04/01 08:28:40;;;;;;;17.23;13.50;;;12.00;86.60;;;;;;5001142;28;20038;-85
2023/04/01 08:31:19;;;;;;;18.08;13.07;;;13.20;82.30;;;;;;5014637;28;20030;-85
2023/04/01 08:33:47;;;;;;;17.65;13.27;;;13.80;76.50;;;;;;5011142;28;20468;-84
2023/04/01 08:36:17;;;;;;;21.70;15.00;;;;;;;;;;5005804;28;20007;-85
2023/04/01 08:38:46;;;;;;;18.98;13.85;;;15.10;71.60;;;;;;5012341;28;20080;-85
2023/04/01 08:41:33;;;;;;;18.58;14.68;;;15.60;67.00;;;;;;5017278;28;20025;-85
2023/04/01 08:44:25;;;;;;;20.15;14.98;;;15.90;66.50;;;;;;5005201;28;20036;-85
2023/04/01 08:47:25;;;;;;;15.93;13.65;;;17.30;64.10;;;;;;5007965;28;20018;-87
2023/04/01 08:50:11;;;;;;;20.58;15.80;;;18.10;59.20;;;;;;5003195;28;20102;-85
2023/04/01 08:52:38;;;;;;;17.13;14.32;;;18.20;59.10;;;;;;4998645;28;20030;-84
2023/04/01 08:55:49;;;;;;;18.10;14.27;;;18.50;54.90;;;;;;5001289;28;20023;-86
2023/04/01 08:58:45;;;;;;;18.80;15.15;;;18.60;56.20;;;;;;4988586;28;20031;-88
2023/04/01 09:01:44;;;;;;;20.67;15.68;;;17.70;55.10;;;;;;4998095;28;20384;-87
2023/04/01 09:04:22;;;;;;;15.68;12.65;;;17.10;57.00;;;;;;4990749;28;20392;-85
2023/04/01 09:07:16;;;;;;;18.35;12.77;;;16.20;55.50;;;;;;4995083;28;20021;-86
2023/04/01 09:10:13;;;;;;;18.25;13.55;;;15.40;56.60;;;;;;4993051;28;20065;-83
2023/04/01 09:12:59;;;;;;;;;;;15.00;59.50;;;;;;5011972;28;20672;-86
2023/04/01 09:15:55;;;;;;;17.05;12.32;;;15.60;60.00;;;;;;4985757;28;20379;-83
2023/04/01 09:19:06;;;;;;;15.43;12.43;;;16.40;55.90;;;;;;4967263;28;20567;-84
2023/04/01 09:21:44;;;;;;;16.27;12.45;;;17.20;55.10;;;;;;5001991;28;20034;-85
2023/04/01 09:24:41;;;;;;;18.25;12.77;;;18.00;52.70;;;;;;4995898;28;20026;-85
2023/04/01 09:27:26;;;;;;;19.58;13.18;;;17.40;53.60;;;;;;4998860;28;20050;-84
2023/04/01 09:30:24;;;;;;;14.20;10.73;;;17.70;52.40;;;;;;4999613;28;20030;-83
2023/04/01 09:33:16;;;;;;;14.25;10.90;;;17.80;51.10;;;;;;4964061;28;20030;-85
2023/04/01 09:35:55;;;;;;;18.77;12.82;;;18.70;51.10;;;;;;4992700;28;20461;-86
2023/04/01 09:38:43;;;;;;;13.88;12.20;;;18.90;48.80;;;;;;4998332;28;20057;-86
2023/04/01 09:41:31;;;;;;;17.33;12.23;;;19.60;48.00;;;;;;4987320;28;20227;-84
2023/04/01 09:44:04;;;;;;;19.70;12.70;;;20.00;47.30;;;;;;5021092;28;20014;-84
2023/04/01 09:47:07;;;;;;;17.15;10.85;;;19.60;45.80;;;;;;5006412;28;20657;-89
2023/04/01 09:50:00;;;;;;;14.25;11.35;;;19.40;46.80;;;;;;4997249;28;20034;-86
2023/04/01 09:52:34;;;;;;;17.15;11.05;;;19.50;45.70;;;;;;4991335;28;20026;-84
2023/04/01 09:55:18;;;;;;;16.60;10.25;;;20.10;45.10;;;;;;4994362;28;20121;-83
2023/04/01 09:58:10;;;;;;;15.02;9.88;;;20.60;44.70;;;;;;5001215;28;20014;-84
2023/04/01 10:00:54;;;;;;;16.70;9.93;;;21.20;44.20;;;;;;4995028;28;20027;-84
2023/04/01 10:03:57;;;;;;;9.90;8.20;;;21.60;43.40;;;;;;4989812;28;20097;-87
2023/04/01 10:06:51;;;;;;;14.63;9.35;;;22.40;41.40;;;;;;5003704;28;20085;-89
2023/04/01 10:09:33;;;;;;;14.43;9.48;;;21.20;41.60;;;;;;4991927;28;20030;-91
2023/04/01 10:12:21;;;;;;;11.55;8.68;;;21.20;42.60;;;;;;5001368;28;20084;-87
2023/04/01 10:15:00;;;;;;;15.50;7.72;;;22.00;40.80;;;;;;4999285;28;20494;-87
2023/04/01 10:17:39;;;;;;;10.00;8.05;;;22.30;39.50;;;;;;4998293;28;20038;-84
2023/04/01 10:20:05;;;;;;;9.98;8.85;;;21.20;39.50;;;;;;4987207;28;20380;-86
2023/04/01 10:22:56;;;;;;;13.55;9.40;;;21.00;40.80;;;;;;4994724;28;20018;-88
2023/04/01 10:25:40;;;;;;;10.93;8.07;;;21.00;41.30;;;;;;4978039;28;20057;-88
2023/04/01 10:28:24;;;;;;;11.23;9.20;;;19.40;41.90;;;;;;4970680;28;20102;-90
2023/04/01 10:31:18;;;;;;;15.40;9.60;;;17.30;45.10;;;;;;4962994;28;20023;-88
2023/04/01 10:34:18;;;;;;;13.10;9.80;;;15.90;48.00;;;;;;4991660;28;20033;-89
2023/04/01 10:36:58;;;;;;;15.60;11.10;;;14.90;50.20;;;;;;4960931;28;20034;-87
2023/04/01 10:39:33;;;;;;;13.38;8.80;;;14.30;52.50;;;;;;4962957;28;20058;-91
2023/04/01 10:42:17;;;;;;;15.93;8.20;;;13.60;52.70;;;;;;4961882;28;20034;-89
2023/04/01 10:44:58;;;;;;;14.38;9.10;;;12.60;55.00;;;;;;4953803;28;20037;-87
2023/04/01 10:48:02;;;;;;;11.40;7.25;;;12.10;56.90;;;;;;4975748;28;20047;-87
2023/04/01 10:51:06;;;;;;;10.18;8.20;;;11.40;57.40;;;;;;4954215;28;20500;-88
2023/04/01 10:53:46;;;;;;;12.82;8.02;;;11.00;59.20;;;;;;4967675;28;20027;-90
2023/04/01 10:56:21;;;;;;;10.85;7.90;;;10.90;59.90;;;;;;4991536;28;20038;-86
2023/04/01 10:59:15;;;;;;;10.38;7.38;;;10.90;60.80;;;;;;4991489;28;20026;-89
2023/04/01 11:02:21;;;;;;;11.32;7.50;;;10.60;61.50;;;;;;4958834;28;20037;-89
2023/04/01 11:05:19;;;;;;;10.13;6.85;;;10.00;62.20;;;;;;5010538;23;20054;-91
2023/04/01 11:08:24;;;;;;;13.68;7.63;;;9.80;62.50;;;;;;5029703;28;20041;-88
2023/04/01 11:10:56;;;;;;;8.95;6.65;;;9.80;63.40;;;;;;5066312;28;20025;-90
2023/04/01 11:13:47;;;;;;;12.20;7.18;;;9.80;63.70;;;;;;5048633;28;20087;-90
2023/04/01 11:16:45;;;;;;;13.50;7.45;;;9.70;63.90;;;;;;5031010;28;20076;-90
2023/04/01 11:19:48;;;;;;;9.18;6.97;;;10.00;64.20;;;;;;5033066;28;20360;-91
2023/04/01 11:22:29;;;;;;;15.30;8.20;;;10.20;64.10;;;;;;5039282;28;20068;-89
2023/04/01 11:25:17;;;;;;;10.93;6.55;;;10.40;64.30;;;;;;5052894;28;20039;-90
2023/04/01 11:27:59;;;;;;;12.32;6.15;;;10.50;64.20;;;;;;5031185;28;20045;-87
2023/04/01 11:30:50;;;;;;;12.15;7.13;;;10.40;63.40;;;;;;5047507;28;20029;-88
2023/04/01 11:33:53;;;;;;;12.13;7.47;;;10.30;63.80;;;;;;5032543;28;20116;-84
2023/04/01 11:36:41;;;;;;;14.18;6.53;;;10.50;64.50;;;;;;5017463;28;20025;-83
2023/04/01 11:39:28;;;;;;;14.45;8.43;;;10.80;64.10;;;;;;5045168;28;20033;-83
2023/04/01 11:42:10;;;;;;;13.77;7.80;;;11.10;63.20;;;;;;5037915;28;20443;-85
2023/04/01 11:44:43;;;;;;;6.15;4.97;;;11.30;62.70;;;;;;5037910;28;20056;-84
2023/04/01 11:47:45;;;;;;;15.50;7.40;;;11.30;61.50;;;;;;5029261;28;20137;-81
2023/04/01 11:50:29;;;;;;;18.00;9.23;;;11.00;62.20;;;;;;5010825;28;20045;-85
2023/04/01 11:53:06;;;;;;;19.95;8.13;;;10.90;63.00;;;;;;5021544;28;20474;-83
2023/04/01 11:55:43;;;;;;;16.98;8.00;;;11.10;63.30;;;;;;5036576;28;20492;-83
2023/04/01 11:58:35;;;;;;;11.07;6.72;;;11.30;63.00;;;;;;5038513;28;20056;-83
2023/04/01 12:01:20;;;;;;;10.45;5.95;;;11.40;62.50;;;;;;5008458;28;20037;-83
2023/04/01 12:04:25;;;;;;;9.18;5.72;;;11.40;62.20;;;;;;5031089;28;20034;-84
2023/04/01 12:07:13;;;;;;;17.92;7.80;;;11.00;62.60;;;;;;5004315;28;20124;-84
2023/04/01 12:10:03;;;;;;;15.50;6.97;;;11.00;63.30;;;;;;5018161;28;20021;-81
2023/04/01 12:12:55;;;;;;;12.70;6.15;;;11.10;63.10;;;;;;5038186;28;20167;-87
2023/04/01 12:15:46;;;;;;;8.30;4.47;;;11.30;62.50;;;;;;5037894;28;20029;-88
2023/04/01 12:18:28;;;;;;;7.13;4.28;;;11.30;62.50;;;;;;5025956;28;20022;-87
2023/04/01 12:21:21;;;;;;;8.05;4.05;;;11.10;62.00;;;;;;5043091;28;20049;-86
2023/04/01 12:24:03;;;;;;;7.80;5.20;;;10.80;61.90;;;;;;5020834;28;20098;-86
2023/04/01 12:26:40;;;;;;;8.68;5.53;;;10.50;63.10;;;;;;5026827;28;20467;-87
2023/04/01 12:29:37;;;;;;;12.30;6.00;;;10.50;62.50;;;;;;5040430;28;20155;-87
2023/04/01 12:32:28;;;;;;;7.22;4.70;;;10.40;62.80;;;;;;5034717;28;20023;-89
2023/04/01 12:35:12;;;;;;;11.15;7.22;;;10.40;62.70;;;;;;5032303;28;20116;-86
2023/04/01 12:38:15;;;;;;;6.80;4.68;;;10.50;63.00;;;;;;5008403;28;20025;-84
2023/04/01 12:41:03;;;;;;;8.85;5.88;;;10.50;61.60;;;;;;5019388;28;20028;-86
2023/04/01 12:43:59;;;;;;;8.07;5.32;;;10.40;62.50;;;;;;5024330;28;20416;-85
2023/04/01 12:46:51;;;;;;;8.88;5.65;;;10.50;62.30;;;;;;5018922;28;20075;-87
2023/04/01 12:49:54;;;;;;;8.32;4.93;;;10.40;61.50;;;;;;5027649;28;20045;-90
2023/04/01 12:53:02;;;;;;;12.23;6.53;;;10.40;62.00;;;;;;5040631;28;20024;-89
2023/04/01 12:55:42;;;;;;;10.05;6.63;;;10.40;62.30;;;;;;5043854;28;20124;-86
2023/04/01 12:58:17;;;;;;;10.77;5.90;;;10.60;61.90;;;;;;5026481;28;20034;-87
2023/04/01 13:01:17;;;;;;;14.23;9.15;;;10.80;61.20;;;;;;5039481;28;20039;-88
2023/04/01 13:04:05;;;;;;;19.35;9.50;;;10.90;61.30;;;;;;5048817;28;20084;-88
2023/04/01 13:06:52;;;;;;;16.10;8.25;;;11.00;61.40;;;;;;5037407;28;20115;-89
2023/04/01 13:09:24;;;;;;;14.63;7.72;;;11.10;61.30;;;;;;5027202;28;20130;-88
2023/04/01 13:12:09;;;;;;;19.30;8.25;;;11.00;61.30;;;;;;5022531;28;20127;-89
2023/04/01 13:14:56;;;;;;;24.95;10.73;;;11.00;62.00;;;;;;5019475;28;20022;-88
2023/04/01 13:17:59;;;;;;;17.55;9.98;;;10.80;62.40;;;;;;5048725;28;20061;-90
2023/04/01 13:20:30;;;;;;;17.75;9.43;;;10.70;63.70;;;;;;5043574;28;20036;-84
2023/04/01 13:23:23;;;;;;;13.85;8.20;;;10.50;64.10;;;;;;5058058;28;20010;-87
2023/04/01 13:26:07;;;;;;;10.63;8.57;;;10.30;65.10;;;;;;5018140;28;20042;-84
2023/04/01 13:28:59;;;;;;;20.70;8.73;;;10.20;65.80;;;;;;5003058;28;20073;-83
2023/04/01 13:31:39;;;;;;;13.32;8.63;;;10.00;66.50;;;;;;5005964;28;20118;-85
2023/04/01 13:34:19;;;;;;;13.98;8.70;;;9.80;67.70;;;;;;5004824;28;20026;-85
2023/04/01 13:36:53;;;;;;;22.23;10.45;;;9.60;68.60;;;;;;5001567;28;20765;-86